Search for airport 
image banner adimage banner adimage banner ad
image banner ad

42PA - Ransome

Located in Exton, United States

ICAO - 42PA, IATA -

Data provided by Airmate  

General information

Coordinates: N40°1'21" W75°35'10"
Elevation is 575 feet MSL.
Magnetic variation is -11° East
View others Airports in Pennsylvania

Operational data

Special qualification required
Current time UTC:
Current local time:
Weather at : KOQN - Brandywine ( 4 km )
METAR: KOQN 071335Z AUTO 05007KT 10SM CLR 14/00 A2991 RMK AO2
View NOTAMs / SUP AIP / TFR affecting this airport [VIEW]
Communications frequencies: [VIEW]

Runways:

Airport contact information

Address: Exton United States

Satellite view of 42PA